createdAt,value
2019-05-20T00:01:26.220Z,6.97
2019-05-20T00:03:59.821Z,7.10
2019-05-20T00:06:33.801Z,6.87
2019-05-20T00:09:05.228Z,6.67
2019-05-20T00:11:37.534Z,6.53
2019-05-20T00:14:08.100Z,6.90
2019-05-20T00:16:40.265Z,6.42
2019-05-20T00:19:11.914Z,6.65
2019-05-20T00:21:42.583Z,6.83
2019-05-20T00:24:12.343Z,6.58
2019-05-20T00:26:41.924Z,6.50
2019-05-20T00:29:10.889Z,7.08
2019-05-20T00:31:43.361Z,6.80
2019-05-20T00:34:12.423Z,6.62
2019-05-20T00:36:43.451Z,7.10
2019-05-20T00:39:20.716Z,6.62
2019-05-20T00:42:12.937Z,6.55
2019-05-20T00:44:45.030Z,6.42
2019-05-20T00:47:15.339Z,6.62
2019-05-20T00:49:46.757Z,6.40
2019-05-20T00:52:17.689Z,6.70
2019-05-20T00:54:51.143Z,6.70
2019-05-20T00:57:21.538Z,6.95
2019-05-20T00:59:54.115Z,6.80
2019-05-20T01:02:24.974Z,6.45
2019-05-20T01:04:57.563Z,6.30
2019-05-20T01:07:29.337Z,7.15
2019-05-20T01:10:01.244Z,6.40
2019-05-20T01:12:30.787Z,6.80
2019-05-20T01:15:12.474Z,6.90
2019-05-20T01:17:44.418Z,6.90
2019-05-20T01:20:15.821Z,6.87
2019-05-20T01:22:47.441Z,7.42
2019-05-20T01:25:16.558Z,7.30
2019-05-20T01:27:45.450Z,7.30
2019-05-20T01:30:18.031Z,7.28
2019-05-20T01:32:49.467Z,7.12
2019-05-20T01:35:21.268Z,7.28
2019-05-20T01:37:50.535Z,6.72
2019-05-20T01:40:19.306Z,6.95
2019-05-20T01:42:53.371Z,7.30
2019-05-20T01:45:22.262Z,7.40
2019-05-20T01:47:56.510Z,6.97
2019-05-20T01:50:30.706Z,6.90
2019-05-20T01:53:02.882Z,7.12
2019-05-20T01:55:33.533Z,7.20
2019-05-20T01:58:03.775Z,6.80
2019-05-20T02:00:32.831Z,7.65
2019-05-20T02:03:03.240Z,7.20
2019-05-20T02:05:33.292Z,6.95
2019-05-20T02:08:03.926Z,7.17
2019-05-20T02:10:35.660Z,7.55
2019-05-20T02:13:04.643Z,7.05
2019-05-20T02:15:38.154Z,7.00
2019-05-20T02:18:08.418Z,7.35
2019-05-20T02:20:37.545Z,7.05
2019-05-20T02:23:19.648Z,7.33
2019-05-20T02:25:50.726Z,7.58
2019-05-20T02:28:22.309Z,6.97
2019-05-20T02:30:56.718Z,7.62
2019-05-20T02:33:24.761Z,7.00
2019-05-20T02:35:59.080Z,7.15
2019-05-20T02:38:28.397Z,7.72
2019-05-20T02:41:01.105Z,7.70
2019-05-20T02:43:33.835Z,7.55
2019-05-20T02:46:02.968Z,7.60
2019-05-20T02:48:34.343Z,7.90
2019-05-20T02:51:03.267Z,7.62
2019-05-20T02:53:33.997Z,7.97
2019-05-20T02:56:06.636Z,7.55
2019-05-20T02:58:36.451Z,7.35
2019-05-20T03:01:05.467Z,7.60
2019-05-20T03:03:34.470Z,7.42
2019-05-20T03:06:05.244Z,7.90
2019-05-20T03:08:34.891Z,7.40
2019-05-20T03:11:05.965Z,7.40
2019-05-20T03:13:35.285Z,7.83
2019-05-20T03:16:04.994Z,7.72
2019-05-20T03:18:35.864Z,8.18
2019-05-20T03:21:05.855Z,7.65
2019-05-20T03:23:34.966Z,7.43
2019-05-20T03:26:05.052Z,7.45
2019-05-20T03:28:34.382Z,7.50
2019-05-20T03:31:04.643Z,7.30
2019-05-20T03:33:33.419Z,7.20
2019-05-20T03:36:04.231Z,7.03
2019-05-20T03:38:35.092Z,6.90
2019-05-20T03:41:04.242Z,7.08
2019-05-20T03:43:34.211Z,6.80
2019-05-20T03:46:03.695Z,7.05
2019-05-20T03:48:34.234Z,7.20
2019-05-20T03:51:03.751Z,7.10
2019-05-20T03:53:33.167Z,7.12
2019-05-20T03:56:02.052Z,7.20
2019-05-20T03:58:31.467Z,7.10
2019-05-20T04:01:01.573Z,7.40
2019-05-20T04:03:31.757Z,7.40
2019-05-20T04:06:01.126Z,7.22
2019-05-20T04:08:30.121Z,7.12
2019-05-20T04:10:59.424Z,7.17
2019-05-20T04:13:34.486Z,7.30
2019-05-20T04:16:02.692Z,7.90
2019-05-20T04:18:31.617Z,7.30
2019-05-20T04:21:08.037Z,7.28
2019-05-20T04:23:38.013Z,7.33
2019-05-20T04:26:28.555Z,7.03
2019-05-20T04:28:57.870Z,6.92
2019-05-20T04:31:27.103Z,6.92
2019-05-20T04:33:56.914Z,7.22
2019-05-20T04:36:26.642Z,8.18
2019-05-20T04:38:56.898Z,7.67
2019-05-20T04:41:26.045Z,7.35
2019-05-20T04:43:54.833Z,7.75
2019-05-20T04:46:23.733Z,6.75
2019-05-20T04:48:52.659Z,6.30
2019-05-20T04:51:21.401Z,6.20
2019-05-20T04:53:50.176Z,5.83
2019-05-20T04:56:19.443Z,5.85
2019-05-20T04:58:48.513Z,6.05
2019-05-20T05:01:18.693Z,5.90
2019-05-20T05:03:47.957Z,5.90
2019-05-20T05:06:18.091Z,5.70
2019-05-20T05:08:47.281Z,6.08
2019-05-20T05:11:17.436Z,6.25
2019-05-20T05:13:47.546Z,6.30
2019-05-20T05:16:16.270Z,5.80
2019-05-20T05:18:49.806Z,5.90
2019-05-20T05:21:21.924Z,5.80
2019-05-20T05:23:59.097Z,5.95
2019-05-20T05:26:34.249Z,5.87
2019-05-20T05:29:04.042Z,5.70
2019-05-20T05:31:32.907Z,6.05
2019-05-20T05:34:02.581Z,6.08
2019-05-20T05:36:33.068Z,6.00
2019-05-20T05:39:04.179Z,6.10
2019-05-20T05:41:38.054Z,5.50
2019-05-20T05:44:07.226Z,6.15
2019-05-20T05:46:36.223Z,5.85
2019-05-20T05:49:05.373Z,6.20
2019-05-20T05:51:34.655Z,6.12
2019-05-20T05:54:03.896Z,6.00
2019-05-20T05:56:32.644Z,6.55
2019-05-20T05:59:04.358Z,6.35
2019-05-20T06:01:33.792Z,6.37
2019-05-20T06:04:03.280Z,6.42
2019-05-20T06:06:35.629Z,6.42
2019-05-20T06:09:07.268Z,6.60
2019-05-20T06:11:38.845Z,7.47
2019-05-20T06:14:08.677Z,7.58
2019-05-20T06:16:39.206Z,7.15
2019-05-20T06:19:08.317Z,7.92
2019-05-20T06:21:38.450Z,7.97
2019-05-20T06:24:08.096Z,7.78
2019-05-20T06:26:38.349Z,8.50
2019-05-20T06:29:07.448Z,9.00
2019-05-20T06:31:37.555Z,9.50
2019-05-20T06:34:06.788Z,9.78
2019-05-20T06:36:37.239Z,9.43
2019-05-20T06:39:13.870Z,10.58
2019-05-20T06:41:44.708Z,10.75
2019-05-20T06:44:13.907Z,11.30
2019-05-20T06:46:42.826Z,12.00
2019-05-20T06:49:21.539Z,12.50
2019-05-20T06:51:50.526Z,12.73
2019-05-20T06:54:20.031Z,12.10
2019-05-20T06:56:49.317Z,12.88
2019-05-20T06:59:19.141Z,12.88
2019-05-20T07:01:48.271Z,12.63
2019-05-20T07:04:18.038Z,12.75
2019-05-20T07:06:59.803Z,12.55
2019-05-20T07:09:29.284Z,12.43
2019-05-20T07:11:58.562Z,13.45
2019-05-20T07:14:27.828Z,12.70
2019-05-20T07:16:57.164Z,12.98
2019-05-20T07:19:26.181Z,12.95
2019-05-20T07:21:55.642Z,13.08
2019-05-20T07:24:24.513Z,13.43
2019-05-20T07:26:57.040Z,13.83
2019-05-20T07:29:26.083Z,13.13
2019-05-20T07:31:59.844Z,13.13
2019-05-20T07:34:28.558Z,13.45
2019-05-20T07:37:03.168Z,12.95
2019-05-20T07:39:30.799Z,13.10
2019-05-20T07:42:01.706Z,14.00
2019-05-20T07:44:32.426Z,13.83
2019-05-20T07:47:03.202Z,12.40
2019-05-20T07:49:32.308Z,13.53
2019-05-20T07:52:01.887Z,13.60
2019-05-20T07:54:31.261Z,14.25
2019-05-20T07:57:02.935Z,15.35
2019-05-20T07:59:32.848Z,14.90
2019-05-20T08:02:03.163Z,14.10
2019-05-20T08:04:34.231Z,14.95
2019-05-20T08:07:26.301Z,14.38
2019-05-20T08:09:34.683Z,13.60
2019-05-20T08:12:03.534Z,13.27
2019-05-20T08:14:32.746Z,12.47
2019-05-20T08:17:02.261Z,14.10
2019-05-20T08:19:32.069Z,14.50
2019-05-20T08:22:04.929Z,14.13
2019-05-20T08:24:34.157Z,14.13
2019-05-20T08:27:03.739Z,13.55
2019-05-20T08:29:33.903Z,14.05
2019-05-20T08:32:06.267Z,14.18
2019-05-20T08:34:38.315Z,13.85
2019-05-20T08:37:11.622Z,14.93
2019-05-20T08:39:40.909Z,14.87
2019-05-20T08:42:11.669Z,14.50
2019-05-20T08:44:41.646Z,14.05
2019-05-20T08:47:13.040Z,14.53
2019-05-20T08:49:42.397Z,15.00
2019-05-20T08:52:11.817Z,15.35
2019-05-20T08:54:41.276Z,14.90
2019-05-20T08:57:11.717Z,15.08
2019-05-20T08:59:42.247Z,15.58
2019-05-20T09:02:20.299Z,14.60
2019-05-20T09:04:50.670Z,14.13
2019-05-20T09:07:19.921Z,14.23
2019-05-20T09:09:48.725Z,15.08
2019-05-20T09:12:18.044Z,15.45
2019-05-20T09:14:47.169Z,14.55
2019-05-20T09:17:38.437Z,15.48
2019-05-20T09:20:06.554Z,14.55
2019-05-20T09:22:37.321Z,14.95
2019-05-20T09:25:12.236Z,15.05
2019-05-20T09:27:42.465Z,15.18
2019-05-20T09:30:13.217Z,14.93
2019-05-20T09:32:45.369Z,14.93
2019-05-20T09:35:16.909Z,14.67
2019-05-20T09:37:46.935Z,15.80
2019-05-20T09:40:21.722Z,16.35
2019-05-20T09:42:51.943Z,15.83
2019-05-20T09:45:21.435Z,17.20
2019-05-20T09:47:51.265Z,16.02
2019-05-20T09:50:20.098Z,16.20
2019-05-20T09:52:50.797Z,16.65
2019-05-20T09:55:20.466Z,16.20
2019-05-20T09:57:51.129Z,15.28
2019-05-20T10:00:20.891Z,14.98
2019-05-20T10:02:50.651Z,14.70
2019-05-20T10:05:20.002Z,14.53
2019-05-20T10:07:54.982Z,15.85
2019-05-20T10:10:26.837Z,14.60
2019-05-20T10:12:56.638Z,14.50
2019-05-20T10:15:27.488Z,14.30
2019-05-20T10:17:57.370Z,14.75
2019-05-20T10:20:26.256Z,14.58
2019-05-20T10:22:57.433Z,13.60
2019-05-20T10:25:26.567Z,13.60
2019-05-20T10:27:57.754Z,13.18
2019-05-20T10:30:35.292Z,13.55
2019-05-20T10:33:09.239Z,13.25
2019-05-20T10:35:38.134Z,15.60
2019-05-20T10:38:11.374Z,14.20
2019-05-20T10:40:42.054Z,14.93
2019-05-20T10:43:22.400Z,14.10
2019-05-20T10:45:58.948Z,13.62
2019-05-20T10:48:29.922Z,13.53
2019-05-20T10:50:59.569Z,13.90
2019-05-20T10:53:29.050Z,12.82
2019-05-20T10:55:59.322Z,11.80
2019-05-20T10:58:29.363Z,11.53
2019-05-20T11:01:03.599Z,12.23
2019-05-20T11:03:35.006Z,12.50
2019-05-20T11:06:05.722Z,12.05
2019-05-20T11:08:35.248Z,13.57
2019-05-20T11:11:06.634Z,13.88
2019-05-20T11:13:35.743Z,13.17
2019-05-20T11:16:04.730Z,13.70
2019-05-20T11:18:35.990Z,14.75
2019-05-20T11:21:07.186Z,14.68
2019-05-20T11:23:38.607Z,15.30
2019-05-20T11:26:08.375Z,14.90
2019-05-20T11:28:37.475Z,15.25
2019-05-20T11:31:09.076Z,14.90
2019-05-20T11:33:51.559Z,15.15
2019-05-20T11:36:23.129Z,14.55
2019-05-20T11:38:53.824Z,15.10
2019-05-20T11:41:51.082Z,14.10
2019-05-20T11:43:55.446Z,15.53
2019-05-20T11:46:26.210Z,14.27
2019-05-20T11:49:19.834Z,14.57
2019-05-20T11:51:50.631Z,14.68
2019-05-20T11:54:23.763Z,14.40
2019-05-20T11:57:11.215Z,14.63
2019-05-20T11:59:52.278Z,15.23
2019-05-20T12:02:23.725Z,15.08
2019-05-20T12:04:54.300Z,15.07
2019-05-20T12:07:42.118Z,15.23
2019-05-20T12:10:13.762Z,15.93
2019-05-20T12:15:47.619Z,15.87
2019-05-20T12:18:24.216Z,16.30
2019-05-20T12:20:53.519Z,15.30
2019-05-20T12:23:22.712Z,15.93
2019-05-20T12:25:54.294Z,15.35
2019-05-20T12:28:26.249Z,16.37
2019-05-20T12:30:58.712Z,16.48
2019-05-20T12:33:33.150Z,17.00
2019-05-20T12:36:11.530Z,15.65
2019-05-20T12:38:52.098Z,16.00
2019-05-20T12:41:26.567Z,15.57
2019-05-20T12:44:11.643Z,14.73
2019-05-20T12:46:33.141Z,14.55
2019-05-20T12:49:04.958Z,13.93
2019-05-20T12:51:34.102Z,14.00
2019-05-20T12:54:09.114Z,13.97
2019-05-20T12:56:38.074Z,13.50
2019-05-20T12:59:25.198Z,13.93
2019-05-20T13:01:58.842Z,13.97
2019-05-20T13:04:28.853Z,13.98
2019-05-20T13:06:59.719Z,13.50
2019-05-20T13:09:30.811Z,13.87
2019-05-20T13:11:59.709Z,13.78
2019-05-20T13:14:28.677Z,14.68
2019-05-20T13:17:01.355Z,14.73
2019-05-20T13:19:34.621Z,14.55
2019-05-20T13:22:04.391Z,15.38
2019-05-20T13:24:35.778Z,15.15
2019-05-20T13:27:05.303Z,15.88
2019-05-20T13:29:47.135Z,15.80
2019-05-20T13:32:16.652Z,16.80
2019-05-20T13:34:45.942Z,16.17
2019-05-20T13:37:14.969Z,16.50
2019-05-20T13:39:43.956Z,15.78
2019-05-20T13:42:13.279Z,15.48
2019-05-20T13:44:45.422Z,15.67
2019-05-20T13:47:14.674Z,14.77
2019-05-20T13:49:43.833Z,14.68
2019-05-20T13:52:13.198Z,13.85
2019-05-20T13:54:42.107Z,12.30
2019-05-20T13:57:13.248Z,11.50
2019-05-20T13:59:48.077Z,9.88
2019-05-20T14:02:19.519Z,8.80
2019-05-20T14:04:48.585Z,7.65
2019-05-20T14:07:17.507Z,6.42
2019-05-20T14:09:46.656Z,6.97
2019-05-20T14:12:16.077Z,7.05
2019-05-20T14:14:55.009Z,6.90
2019-05-20T14:17:26.201Z,6.75
2019-05-20T14:20:02.089Z,7.25
2019-05-20T14:22:38.265Z,7.37
2019-05-20T14:25:09.151Z,7.12
2019-05-20T14:27:42.650Z,7.30
2019-05-20T14:30:12.458Z,7.37
2019-05-20T14:32:43.456Z,7.20
2019-05-20T14:35:14.389Z,7.07
2019-05-20T14:37:44.265Z,6.78
2019-05-20T14:40:13.982Z,6.35
2019-05-20T14:42:43.442Z,6.10
2019-05-20T14:45:12.828Z,6.03
2019-05-20T14:47:44.104Z,6.55
2019-05-20T14:50:19.419Z,6.37
2019-05-20T14:52:52.262Z,6.35
2019-05-20T14:55:25.872Z,6.40
2019-05-20T14:58:11.826Z,7.20
2019-05-20T15:00:49.318Z,7.12
2019-05-20T15:03:20.178Z,6.95
2019-05-20T15:06:05.632Z,7.23
2019-05-20T15:08:46.042Z,7.08
2019-05-20T15:11:37.116Z,7.03
2019-05-20T15:14:00.098Z,6.47
2019-05-20T15:16:32.685Z,6.70
2019-05-20T15:19:03.320Z,6.25
2019-05-20T15:21:33.016Z,6.42
2019-05-20T15:24:03.269Z,6.45
2019-05-20T15:26:32.284Z,6.42
2019-05-20T15:29:02.086Z,7.08
2019-05-20T15:31:32.989Z,6.92
2019-05-20T15:34:05.751Z,6.97
2019-05-20T15:36:37.697Z,6.97
2019-05-20T15:39:07.155Z,6.30
2019-05-20T15:41:40.043Z,6.37
2019-05-20T15:44:09.338Z,6.80
2019-05-20T15:46:39.067Z,7.03
2019-05-20T15:49:08.100Z,7.10
2019-05-20T15:51:36.825Z,6.97
2019-05-20T15:54:07.300Z,7.17
2019-05-20T15:56:36.211Z,7.20
2019-05-20T15:59:11.215Z,9.35
2019-05-20T16:01:40.538Z,9.73
2019-05-20T16:04:11.309Z,9.55
2019-05-20T16:06:44.415Z,10.13
2019-05-20T16:09:19.241Z,9.50
2019-05-20T16:11:51.342Z,9.23
2019-05-20T16:14:20.795Z,9.60
2019-05-20T16:16:55.575Z,8.90
2019-05-20T16:19:25.895Z,9.90
2019-05-20T16:21:56.823Z,9.78
2019-05-20T16:24:27.777Z,9.50
2019-05-20T16:27:08.906Z,9.30
2019-05-20T16:30:05.528Z,9.50
2019-05-20T16:32:35.898Z,9.63
2019-05-20T16:35:18.870Z,9.48
2019-05-20T16:37:48.296Z,8.80
2019-05-20T16:40:19.919Z,9.33
2019-05-20T16:42:49.879Z,9.58
2019-05-20T16:45:20.635Z,10.20
2019-05-20T16:47:51.335Z,10.28
2019-05-20T16:50:24.408Z,12.23
2019-05-20T16:53:00.106Z,11.50
2019-05-20T16:56:19.898Z,12.50
2019-05-20T17:01:44.264Z,13.65
2019-05-20T17:03:50.156Z,11.28
2019-05-20T17:06:27.536Z,11.00
2019-05-20T17:09:06.128Z,10.18
2019-05-20T17:11:33.913Z,9.60
2019-05-20T17:14:04.973Z,8.48
2019-05-20T17:16:41.662Z,8.33
2019-05-20T17:19:11.590Z,7.03
2019-05-20T17:21:41.773Z,7.50
2019-05-20T17:24:13.348Z,7.80
2019-05-20T17:26:44.660Z,8.85
2019-05-20T17:29:16.122Z,11.18
2019-05-20T17:31:47.222Z,7.90
2019-05-20T17:34:19.895Z,10.05
2019-05-20T17:36:50.696Z,9.38
2019-05-20T17:39:22.653Z,9.88
2019-05-20T17:41:53.105Z,10.15
2019-05-20T17:44:22.421Z,10.90
2019-05-20T17:46:52.035Z,12.13
2019-05-20T17:49:21.130Z,11.73
2019-05-20T17:51:51.034Z,10.13
2019-05-20T17:54:21.664Z,10.93
2019-05-20T17:56:56.762Z,11.45
2019-05-20T17:59:27.791Z,13.13
2019-05-20T18:02:02.930Z,13.72
2019-05-20T18:04:34.723Z,13.53
2019-05-20T18:07:05.908Z,14.03
2019-05-20T18:09:39.028Z,13.80
2019-05-20T18:12:10.570Z,14.47
2019-05-20T18:14:44.038Z,14.75
2019-05-20T18:17:14.484Z,14.50
2019-05-20T18:19:46.281Z,14.90
2019-05-20T18:22:18.652Z,14.70
2019-05-20T18:24:49.425Z,12.20
2019-05-20T18:27:21.246Z,10.85
2019-05-20T18:29:53.008Z,9.25
2019-05-20T18:32:28.528Z,9.60
2019-05-20T18:35:01.279Z,9.30
2019-05-20T18:37:32.653Z,9.90
2019-05-20T18:40:20.278Z,9.98
2019-05-20T18:42:54.349Z,9.60
2019-05-20T18:45:24.917Z,9.73
2019-05-20T18:47:56.217Z,9.73
2019-05-20T18:50:27.270Z,9.40
2019-05-20T18:53:01.672Z,9.40
2019-05-20T18:55:34.601Z,9.70
2019-05-20T18:58:09.856Z,10.03
2019-05-20T19:00:45.844Z,9.60
2019-05-20T19:03:18.787Z,10.30
2019-05-20T19:05:48.893Z,11.50
2019-05-20T19:08:25.960Z,11.60
2019-05-20T19:10:58.320Z,11.08
2019-05-20T19:13:33.425Z,10.53
2019-05-20T19:16:07.368Z,10.95
2019-05-20T19:18:58.915Z,10.80
2019-05-20T19:24:40.772Z,11.25
2019-05-20T19:27:11.515Z,10.25
2019-05-20T19:29:41.945Z,11.30
2019-05-20T19:32:13.685Z,10.78
2019-05-20T19:34:45.792Z,12.18
2019-05-20T19:37:20.734Z,12.50
2019-05-20T19:39:53.478Z,11.50
2019-05-20T19:42:23.692Z,11.75
2019-05-20T19:44:55.365Z,11.97
2019-05-20T19:47:27.398Z,12.07
2019-05-20T19:49:59.916Z,11.60
2019-05-20T19:52:32.399Z,11.73
2019-05-20T19:55:05.525Z,12.03
2019-05-20T19:57:39.219Z,11.33
2019-05-20T20:00:10.882Z,10.50
2019-05-20T20:02:58.532Z,10.90
2019-05-20T20:05:29.242Z,10.50
2019-05-20T20:08:00.471Z,11.28
2019-05-20T20:10:32.070Z,10.13
2019-05-20T20:13:02.452Z,11.03
2019-05-20T20:15:34.213Z,10.68
2019-05-20T20:18:05.155Z,10.95
2019-05-20T20:20:35.554Z,10.35
2019-05-20T20:23:06.117Z,10.88
2019-05-20T20:25:36.683Z,11.25
2019-05-20T20:28:10.914Z,10.68
2019-05-20T20:30:41.883Z,11.57
2019-05-20T20:33:11.531Z,10.82
2019-05-20T20:35:44.861Z,10.68
2019-05-20T20:38:15.631Z,10.35
2019-05-20T20:40:46.225Z,10.43
2019-05-20T20:43:18.403Z,9.30
2019-05-20T20:45:48.919Z,8.65
2019-05-20T20:48:21.870Z,9.40
2019-05-20T20:50:55.938Z,9.25
2019-05-20T20:53:27.191Z,8.20
2019-05-20T20:56:00.129Z,9.43
2019-05-20T20:58:31.636Z,8.13
2019-05-20T21:01:03.061Z,8.28
2019-05-20T21:03:39.031Z,8.18
2019-05-20T21:06:18.208Z,7.60
2019-05-20T21:08:48.547Z,8.00
2019-05-20T21:11:18.847Z,7.70
2019-05-20T21:13:49.608Z,7.50
2019-05-20T21:16:22.067Z,7.45
2019-05-20T21:19:15.377Z,7.75
2019-05-20T21:21:45.810Z,7.78
2019-05-20T21:24:18.993Z,7.47
2019-05-20T21:26:49.274Z,7.08
2019-05-20T21:29:26.418Z,7.47
2019-05-20T21:32:02.474Z,6.85
2019-05-20T21:34:37.607Z,6.83
2019-05-20T21:37:08.285Z,7.33
2019-05-20T21:39:40.073Z,7.30
2019-05-20T21:42:13.141Z,6.70
2019-05-20T21:44:45.886Z,7.03
2019-05-20T21:47:19.352Z,6.53
2019-05-20T21:49:49.492Z,6.20
2019-05-20T21:52:19.915Z,5.62
2019-05-20T21:54:54.353Z,5.58
2019-05-20T21:57:24.947Z,5.40
2019-05-20T21:59:56.203Z,5.25
2019-05-20T22:02:26.672Z,4.97
2019-05-20T22:04:57.382Z,4.72
2019-05-20T22:07:28.984Z,4.72
2019-05-20T22:10:01.615Z,4.72
2019-05-20T22:12:45.648Z,4.90
2019-05-20T22:15:17.422Z,5.00
2019-05-20T22:17:50.838Z,5.17
2019-05-20T22:20:23.874Z,5.05
2019-05-20T22:23:13.149Z,5.37
2019-05-20T22:25:50.918Z,5.30
2019-05-20T22:28:24.635Z,5.80
2019-05-20T22:30:55.985Z,5.50
2019-05-20T22:33:59.265Z,5.37
2019-05-20T22:36:32.513Z,5.45
2019-05-20T22:39:10.648Z,5.58
2019-05-20T22:41:49.628Z,5.27
2019-05-20T22:44:20.214Z,5.22
2019-05-20T22:46:57.963Z,5.60
2019-05-20T22:49:32.575Z,5.72
2019-05-20T22:52:05.521Z,5.62
2019-05-20T22:54:38.627Z,5.47
2019-05-20T22:57:09.761Z,5.30
2019-05-20T22:59:43.763Z,5.47
2019-05-20T23:02:17.984Z,5.80
2019-05-20T23:04:48.807Z,5.35
2019-05-20T23:07:21.377Z,5.50
2019-05-20T23:09:52.845Z,5.35
2019-05-20T23:12:24.094Z,5.20
2019-05-20T23:14:55.561Z,5.53
2019-05-20T23:17:26.426Z,5.80
2019-05-20T23:20:02.278Z,5.65
2019-05-20T23:22:33.263Z,5.67
2019-05-20T23:25:03.675Z,5.50
2019-05-20T23:27:34.484Z,6.12
2019-05-20T23:30:05.741Z,5.90
2019-05-20T23:32:37.629Z,6.00
2019-05-20T23:35:09.094Z,6.00
2019-05-20T23:37:40.418Z,6.35
2019-05-20T23:40:10.790Z,6.43
2019-05-20T23:42:41.409Z,6.70
2019-05-20T23:45:13.598Z,6.90
2019-05-20T23:47:43.930Z,7.03
2019-05-20T23:50:13.763Z,7.43
2019-05-20T23:52:43.526Z,7.60
2019-05-20T23:55:17.119Z,6.95
2019-05-20T23:57:48.317Z,7.05
